createdAt,value
2022-11-05T05:33:01.405Z,0.1
2022-11-05T05:35:01.103Z,0.2
2022-11-05T05:36:01.120Z,0.3
2022-11-05T05:38:01.352Z,0.4
2022-11-05T05:39:01.112Z,0.5
2022-11-05T05:41:01.547Z,0.7
2022-11-05T05:42:01.109Z,0.8
2022-11-05T05:43:01.355Z,0.9
2022-11-05T05:44:01.106Z,1.1
2022-11-05T05:45:06.122Z,1.2
2022-11-05T05:46:03.243Z,1.5
2022-11-05T05:47:01.110Z,1.7
2022-11-05T05:48:01.633Z,2.1
2022-11-05T05:49:01.144Z,2.4
2022-11-05T05:50:01.117Z,2.7
2022-11-05T05:51:01.402Z,3.3
2022-11-05T05:52:01.209Z,3.8
2022-11-05T05:53:01.600Z,4.6
2022-11-05T05:54:01.116Z,5.4
2022-11-05T05:55:01.141Z,6.2
2022-11-05T05:56:01.130Z,7.4
2022-11-05T05:57:01.118Z,8.6
2022-11-05T05:58:03.094Z,10.5
2022-11-05T05:59:01.124Z,12.3
2022-11-05T06:00:01.113Z,14.2
2022-11-05T06:01:01.653Z,17.0
2022-11-05T06:02:01.214Z,19.8
2022-11-05T06:03:01.443Z,24.1
2022-11-05T06:04:01.120Z,28.5
2022-11-05T06:05:01.206Z,32.8
2022-11-05T06:07:01.105Z,39.7
2022-11-05T06:08:01.312Z,51.1
2022-11-05T06:09:01.121Z,62.3
2022-11-05T06:10:01.103Z,73.4
2022-11-05T06:11:07.229Z,90.9
2022-11-05T06:12:01.120Z,108.0
2022-11-05T06:13:01.387Z,133.3
2022-11-05T06:14:01.134Z,158.0
2022-11-05T06:15:01.115Z,182.7
2022-11-05T06:16:01.123Z,217.6
2022-11-05T06:17:01.105Z,251.5
2022-11-05T06:18:01.365Z,298.5
2022-11-05T06:19:01.109Z,343.8
2022-11-05T06:20:01.106Z,389.1
2022-11-05T06:21:01.944Z,450.9
2022-11-05T06:22:01.108Z,509.8
2022-11-05T06:23:01.351Z,583.8
2022-11-05T06:24:01.146Z,657.8
2022-11-05T06:25:01.116Z,731.8
2022-11-05T06:26:01.121Z,821.8
2022-11-05T06:27:01.113Z,911.8
2022-11-05T06:28:01.607Z,1020.1
2022-11-05T06:29:01.158Z,1128.5
2022-11-05T06:30:01.115Z,1236.8
2022-11-05T06:31:01.134Z,1366.6
2022-11-05T06:32:01.114Z,1496.4
2022-11-05T06:33:01.596Z,1650.5
2022-11-05T06:34:01.176Z,1804.7
2022-11-05T06:35:01.118Z,1958.8
2022-11-05T06:36:01.985Z,2138.7
2022-11-05T06:37:02.179Z,2318.7
2022-11-05T06:38:01.590Z,2523.3
2022-11-05T06:39:06.459Z,2727.9
2022-11-05T06:40:01.107Z,2932.5
2022-11-05T06:41:04.546Z,3163.1
2022-11-05T06:42:17.730Z,3393.7
2022-11-05T06:43:01.740Z,3645.7
2022-11-05T06:44:01.172Z,3897.7
2022-11-05T06:45:01.158Z,4149.7
2022-11-05T06:46:01.650Z,4414.7
2022-11-05T06:47:01.114Z,4679.7
2022-11-05T06:48:01.319Z,4951.1
2022-11-05T06:49:01.154Z,5222.5
2022-11-05T06:50:02.270Z,5493.9
2022-11-05T06:51:01.149Z,5781.0
2022-11-05T06:52:01.255Z,6068.1
2022-11-05T06:53:01.368Z,6386.2
2022-11-05T06:54:01.142Z,6704.3
2022-11-05T06:56:01.401Z,7083.9
2022-11-05T06:57:01.112Z,7415.2
2022-11-05T06:58:01.334Z,7805.6
2022-11-05T06:59:01.177Z,8148.0
2022-11-05T07:00:04.587Z,8490.4
2022-11-05T07:01:02.305Z,8893.7
2022-11-05T07:02:01.195Z,9252.3
2022-11-05T07:03:01.378Z,9672.4
2022-11-05T07:04:01.168Z,10048.6
2022-11-05T07:05:06.107Z,10424.8
2022-11-05T07:06:01.125Z,10864.3
2022-11-05T07:07:02.228Z,11245.9
2022-11-05T07:08:01.580Z,11694.7
2022-11-05T07:09:01.158Z,12068.3
2022-11-05T07:10:01.131Z,12441.9
2022-11-05T07:11:01.982Z,12819.8
2022-11-05T07:12:01.105Z,13197.7
2022-11-05T07:13:08.274Z,13589.1
2022-11-05T07:14:01.141Z,13980.5
2022-11-05T07:15:01.105Z,14371.9
2022-11-05T07:16:04.011Z,14790.5
2022-11-05T07:17:01.136Z,15209.0
2022-11-05T07:18:01.366Z,15707.4
2022-11-05T07:19:01.140Z,16205.8
2022-11-05T07:20:01.173Z,16704.2
2022-11-05T07:21:02.954Z,17214.9
2022-11-05T07:22:01.108Z,17725.7
2022-11-05T07:23:01.568Z,18192.4
2022-11-05T07:24:01.180Z,18659.1
2022-11-05T07:25:01.166Z,19125.9
2022-11-05T07:26:01.868Z,19815.9
2022-11-05T07:27:01.117Z,20506.0
2022-11-05T07:28:02.490Z,21297.8
2022-11-05T07:29:01.144Z,22089.6
2022-11-05T07:30:01.119Z,22881.4
2022-11-05T07:31:01.963Z,23693.3
2022-11-05T07:32:01.115Z,24505.1
2022-11-05T07:33:07.052Z,25176.3
2022-11-05T07:34:01.137Z,25847.5
2022-11-05T07:35:01.461Z,26518.7
2022-11-05T07:36:02.067Z,27173.1
2022-11-05T07:37:01.114Z,27827.5
2022-11-05T07:38:01.316Z,28913.1
2022-11-05T07:39:01.149Z,29998.7
2022-11-05T07:40:01.121Z,31084.3
2022-11-05T07:41:01.965Z,31479.7
2022-11-05T07:42:01.113Z,31875.0
2022-11-05T07:43:06.341Z,31999.6
2022-11-05T07:44:01.154Z,32124.2
2022-11-05T07:45:01.372Z,32248.8
2022-11-05T07:46:01.936Z,31625.9
2022-11-05T07:47:01.125Z,31002.9
2022-11-05T07:48:01.534Z,30412.0
2022-11-05T07:49:01.413Z,29821.1
2022-11-05T07:50:01.361Z,29230.1
2022-11-05T07:51:03.035Z,28675.6
2022-11-05T07:52:02.213Z,28121.1
2022-11-05T07:53:01.580Z,27324.4
2022-11-05T07:54:01.152Z,26527.7
2022-11-05T07:55:01.113Z,25731.1
2022-11-05T07:56:02.240Z,27966.5
2022-11-05T07:57:01.143Z,30201.9
2022-11-05T07:58:01.323Z,32533.7
2022-11-05T07:59:03.167Z,34865.5
2022-11-05T08:00:01.182Z,37197.3
2022-11-05T08:01:01.335Z,40168.5
2022-11-05T08:02:01.301Z,43139.7
2022-11-05T08:04:01.502Z,46078.2
2022-11-05T08:05:01.103Z,49016.7
2022-11-05T08:06:02.146Z,51955.3
2022-11-05T08:07:01.107Z,54798.5
2022-11-05T08:08:01.109Z,57641.8
2022-11-05T08:09:01.571Z,60272.9
2022-11-05T08:10:01.183Z,62903.9
2022-11-05T08:11:07.064Z,65535.0
2022-11-05T08:13:01.266Z,64235.5
2022-11-05T08:14:01.345Z,62935.9
2022-11-05T08:15:01.116Z,61636.4
2022-11-05T08:16:02.053Z,59254.7
2022-11-05T08:17:01.203Z,56872.9
2022-11-05T08:21:03.234Z,54866.4
2022-11-05T08:22:01.417Z,52859.9
2022-11-05T08:23:01.119Z,51754.3
2022-11-05T08:24:01.197Z,50648.7
2022-11-05T08:25:05.644Z,49543.1
2022-11-05T08:26:03.359Z,48775.7
2022-11-05T08:27:01.115Z,48008.4
2022-11-05T08:28:01.190Z,49307.9
2022-11-05T08:29:01.414Z,50607.5
2022-11-05T08:30:02.147Z,51907.0
2022-11-05T08:31:04.590Z,54288.7
2022-11-05T08:32:01.114Z,56670.5
2022-11-05T08:36:01.984Z,58677.0
2022-11-05T08:37:01.133Z,60683.5
2022-11-05T08:38:01.116Z,61789.1
2022-11-05T08:39:01.124Z,62894.7
2022-11-05T08:40:01.179Z,64000.3
2022-11-05T08:41:01.614Z,64767.7
2022-11-05T08:42:01.118Z,65535.0
2022-11-05T08:45:01.258Z,65535.0
2022-11-05T08:53:01.231Z,65388.1
2022-11-05T08:54:01.111Z,65241.1
2022-11-05T08:55:01.206Z,65094.2
2022-11-05T08:56:01.889Z,64315.5
2022-11-05T08:57:01.110Z,63536.9
2022-11-05T08:58:01.109Z,62181.6
2022-11-05T08:59:01.111Z,60826.3
2022-11-05T09:00:01.392Z,59471.1
2022-11-05T09:01:12.345Z,58571.3
2022-11-05T09:02:01.253Z,57671.6
2022-11-05T09:08:06.168Z,57818.5
2022-11-05T09:09:01.109Z,57965.5
2022-11-05T09:10:01.173Z,58112.4
2022-11-05T09:11:02.052Z,58891.1
2022-11-05T09:12:16.381Z,59669.7
2022-11-05T09:13:01.383Z,61025.0
2022-11-05T09:14:01.291Z,62380.3
2022-11-05T09:15:01.387Z,63735.5
2022-11-05T09:16:07.545Z,64635.3
2022-11-05T09:17:01.206Z,65535.0
2022-11-05T09:30:01.120Z,65535.0
2022-11-05T09:45:01.209Z,65535.0
2022-11-05T10:00:01.114Z,65535.0
2022-11-05T10:15:01.305Z,65535.0
2022-11-05T10:30:06.182Z,65535.0
2022-11-05T10:45:01.183Z,65535.0
2022-11-05T10:46:02.032Z,65054.5
2022-11-05T10:47:01.112Z,64573.9
2022-11-05T11:00:01.134Z,64573.9
2022-11-05T11:01:02.493Z,65054.5
2022-11-05T11:02:01.320Z,65535.0
2022-11-05T11:15:01.558Z,65535.0
2022-11-05T11:21:01.830Z,63852.9
2022-11-05T11:22:01.159Z,62170.9
2022-11-05T11:23:01.111Z,60341.7
2022-11-05T11:24:02.139Z,58512.6
2022-11-05T11:25:01.116Z,56683.5
2022-11-05T11:26:01.341Z,55340.7
2022-11-05T11:27:01.137Z,53998.0
2022-11-05T11:28:01.110Z,53117.7
2022-11-05T11:29:01.144Z,52237.5
2022-11-05T11:30:01.104Z,51357.2
2022-11-05T11:31:02.184Z,50680.4
2022-11-05T11:32:01.150Z,50003.6
2022-11-05T11:36:02.009Z,51685.7
2022-11-05T11:37:01.166Z,53367.7
2022-11-05T11:38:01.103Z,55196.9
2022-11-05T11:39:01.116Z,57026.0
2022-11-05T11:40:01.111Z,58855.1
2022-11-05T11:41:01.587Z,60197.9
2022-11-05T11:42:01.139Z,61540.6
2022-11-05T11:43:01.383Z,62420.9
2022-11-05T11:44:01.103Z,63301.1
2022-11-05T11:45:01.108Z,64181.4
2022-11-05T11:46:15.474Z,64858.2
2022-11-05T11:47:01.402Z,65535.0
2022-11-05T12:00:09.076Z,65535.0
2022-11-05T12:15:01.940Z,65535.0
2022-11-05T12:30:01.150Z,65535.0
2022-11-05T12:44:01.399Z,64555.9
2022-11-05T12:45:01.400Z,63576.7
2022-11-05T13:00:02.508Z,64555.9
2022-11-05T13:01:01.145Z,65535.0
2022-11-05T13:04:01.270Z,65282.9
2022-11-05T13:05:01.574Z,65030.7
2022-11-05T13:15:01.175Z,65030.7
2022-11-05T13:19:01.357Z,64413.9
2022-11-05T13:20:01.108Z,63797.0
2022-11-05T13:21:01.920Z,62755.0
2022-11-05T13:22:01.105Z,61713.0
2022-11-05T13:23:02.144Z,60671.0
2022-11-05T13:24:01.321Z,60059.9
2022-11-05T13:25:01.107Z,59448.9
2022-11-05T13:29:01.316Z,56967.3
2022-11-05T13:30:01.114Z,54485.7
2022-11-05T13:31:01.125Z,50955.5
2022-11-05T13:32:01.104Z,47425.4
2022-11-05T13:33:01.111Z,43895.3
2022-11-05T13:34:01.317Z,41410.7
2022-11-05T13:35:01.138Z,38926.2
2022-11-05T13:36:01.737Z,36554.3
2022-11-05T13:37:01.273Z,34182.5
2022-11-05T13:38:01.106Z,31810.6
2022-11-05T13:39:01.321Z,29032.9
2022-11-05T13:40:01.119Z,26255.1
2022-11-05T13:41:02.576Z,23118.0
2022-11-05T13:42:01.110Z,19980.9
2022-11-05T13:43:01.115Z,16843.7
2022-11-05T13:44:01.319Z,16471.7
2022-11-05T13:45:01.109Z,16099.6
2022-11-05T13:47:01.375Z,17292.7
2022-11-05T13:48:01.104Z,18485.7
2022-11-05T13:49:01.305Z,20645.3
2022-11-05T13:50:01.098Z,22628.2
2022-11-05T13:51:01.702Z,24571.5
2022-11-05T13:52:01.098Z,26575.2
2022-11-05T13:53:01.105Z,28578.9
2022-11-05T13:54:01.310Z,30271.3
2022-11-05T13:55:01.375Z,31938.7
2022-11-05T13:56:01.626Z,32671.4
2022-11-05T13:57:01.113Z,33152.4
2022-11-05T13:58:01.099Z,33633.4
2022-11-05T13:59:01.302Z,33809.4
2022-11-05T14:00:01.116Z,33701.9
2022-11-05T14:01:01.965Z,33556.1
2022-11-05T14:02:01.229Z,32893.7
2022-11-05T14:03:01.099Z,32231.3
2022-11-05T14:04:01.310Z,30561.3
2022-11-05T14:05:01.791Z,28891.3
2022-11-05T14:06:07.150Z,27171.7
2022-11-05T14:07:01.098Z,25452.0
2022-11-05T14:08:01.106Z,23732.3
2022-11-05T14:09:01.308Z,22471.5
2022-11-05T14:10:01.126Z,21210.7
2022-11-05T14:11:01.114Z,21259.9
2022-11-05T14:12:01.114Z,21309.0
2022-11-05T14:13:01.096Z,21358.1
2022-11-05T14:14:01.338Z,22188.1
2022-11-05T14:15:01.099Z,23018.1
2022-11-05T14:16:01.114Z,24501.2
2022-11-05T14:17:01.101Z,25984.3
2022-11-05T14:18:01.109Z,27467.3
2022-11-05T14:19:01.314Z,29269.3
2022-11-05T14:20:01.120Z,31071.2
2022-11-05T14:21:01.955Z,32858.3
2022-11-05T14:22:01.120Z,34645.5
2022-11-05T14:23:03.078Z,36432.6
2022-11-05T14:24:01.378Z,37676.4
2022-11-05T14:25:01.109Z,38920.2
2022-11-05T14:26:01.113Z,39078.6
2022-11-05T14:27:01.120Z,39237.0
2022-11-05T14:28:01.105Z,39395.4
2022-11-05T14:29:01.310Z,38826.6
2022-11-05T14:30:01.106Z,38257.8
2022-11-05T14:31:01.118Z,37120.0
2022-11-05T14:32:09.464Z,35982.2
2022-11-05T14:33:01.106Z,34844.4
2022-11-05T14:34:01.309Z,33300.3
2022-11-05T14:35:01.365Z,31756.3
2022-11-05T14:36:01.918Z,30046.7
2022-11-05T14:37:01.110Z,28337.2
2022-11-05T14:38:01.140Z,26627.7
2022-11-05T14:39:04.217Z,25268.5
2022-11-05T14:40:01.113Z,23909.3
2022-11-05T14:41:01.123Z,23368.2
2022-11-05T14:42:01.110Z,22827.1
2022-11-05T14:43:01.182Z,22286.1
2022-11-05T14:44:01.318Z,22018.9
2022-11-05T14:45:01.376Z,21751.7
2022-11-05T14:46:01.116Z,21508.4
2022-11-05T14:47:01.109Z,21265.1
2022-11-05T14:48:01.212Z,21021.9
2022-11-05T14:49:08.232Z,20563.7
2022-11-05T14:50:01.160Z,20105.5
2022-11-05T14:51:07.000Z,19613.5
2022-11-05T14:52:01.110Z,19121.6
2022-11-05T14:53:01.179Z,18629.7
2022-11-05T14:54:01.559Z,18045.3
2022-11-05T14:55:01.114Z,17460.9
2022-11-05T14:56:02.275Z,16707.9
2022-11-05T14:57:01.113Z,15955.0
2022-11-05T14:58:01.114Z,15202.1
2022-11-05T15:00:03.486Z,14408.1
2022-11-05T15:01:02.319Z,13586.7
2022-11-05T15:02:01.211Z,12695.7
2022-11-05T15:03:01.096Z,11804.7
2022-11-05T15:04:01.291Z,10897.5
2022-11-05T15:05:01.309Z,10333.7
2022-11-05T15:06:01.670Z,9784.1
2022-11-05T15:07:01.108Z,9537.9
2022-11-05T15:08:01.160Z,9291.6
2022-11-05T15:09:01.101Z,9015.0
2022-11-05T15:10:04.408Z,8876.2
2022-11-05T15:11:01.890Z,8732.5
2022-11-05T15:12:01.107Z,8649.3
2022-11-05T15:13:02.218Z,8566.2
2022-11-05T15:14:01.106Z,8450.0
2022-11-05T15:15:01.917Z,8352.3
2022-11-05T15:16:02.109Z,8258.3
2022-11-05T15:17:01.098Z,8164.3
2022-11-05T15:18:01.100Z,8070.3
2022-11-05T15:19:01.106Z,7958.3
2022-11-05T15:20:01.758Z,7846.2
2022-11-05T15:21:01.828Z,7697.5
2022-11-05T15:22:01.495Z,7548.7
2022-11-05T15:23:02.204Z,7400.0
2022-11-05T15:24:01.105Z,7251.1
2022-11-05T15:25:01.755Z,7102.3
2022-11-05T15:26:02.257Z,6913.1
2022-11-05T15:27:01.101Z,6724.0
2022-11-05T15:28:01.158Z,6534.9
2022-11-05T15:29:01.103Z,6318.0
2022-11-05T15:30:01.321Z,6101.1
2022-11-05T15:31:01.131Z,5860.1
2022-11-05T15:32:01.107Z,5619.1
2022-11-05T15:33:01.383Z,5378.1
2022-11-05T15:34:01.117Z,5133.8
2022-11-05T15:35:01.317Z,4889.5
2022-11-05T15:36:07.025Z,4627.2
2022-11-05T15:37:01.112Z,4364.9
2022-11-05T15:38:02.624Z,4102.7
2022-11-05T15:39:28.804Z,3813.9
2022-11-05T15:40:01.251Z,3525.2
2022-11-05T15:41:01.551Z,3229.4
2022-11-05T15:42:01.144Z,2933.6
2022-11-05T15:43:01.400Z,2637.8
2022-11-05T15:44:01.122Z,2409.4
2022-11-05T15:45:01.324Z,2181.0
2022-11-05T15:46:01.866Z,1995.7
2022-11-05T15:47:01.106Z,1810.5
2022-11-05T15:48:01.109Z,1625.2
2022-11-05T15:49:01.112Z,1463.5
2022-11-05T15:50:01.328Z,1301.7
2022-11-05T15:52:01.104Z,1168.2
2022-11-05T15:53:14.479Z,1034.7
2022-11-05T15:54:24.250Z,891.8
2022-11-05T15:55:01.093Z,805.9
2022-11-05T15:56:01.314Z,712.9
2022-11-05T15:57:01.102Z,672.1
2022-11-05T15:58:01.137Z,631.4
2022-11-05T15:59:01.098Z,585.1
2022-11-05T16:00:01.399Z,532.3
2022-11-05T16:01:03.009Z,475.3
2022-11-05T16:02:01.228Z,423.1
2022-11-05T16:03:01.110Z,370.8
2022-11-05T16:04:03.416Z,315.7
2022-11-05T16:05:01.378Z,274.8
2022-11-05T16:06:06.330Z,232.0
2022-11-05T16:07:01.374Z,201.3
2022-11-05T16:08:01.407Z,170.7
2022-11-05T16:09:01.103Z,148.1
2022-11-05T16:10:01.193Z,125.6
2022-11-05T16:11:02.033Z,109.3
2022-11-05T16:12:01.109Z,93.1
2022-11-05T16:13:01.113Z,76.8
2022-11-05T16:14:01.121Z,65.5
2022-11-05T16:15:01.136Z,54.1
2022-11-05T16:16:01.871Z,46.5
2022-11-05T16:17:01.112Z,38.9
2022-11-05T16:18:01.111Z,31.3
2022-11-05T16:19:01.119Z,26.3
2022-11-05T16:20:01.218Z,21.3
2022-11-05T16:21:01.324Z,18.1
2022-11-05T16:22:01.358Z,14.9
2022-11-05T16:23:01.101Z,11.7
2022-11-05T16:24:01.129Z,9.7
2022-11-05T16:25:01.144Z,7.7
2022-11-05T16:26:11.343Z,6.5
2022-11-05T16:27:02.865Z,5.2
2022-11-05T16:28:01.111Z,3.9
2022-11-05T16:29:01.183Z,3.3
2022-11-05T16:30:01.255Z,2.6
2022-11-05T16:31:02.202Z,2.3
2022-11-05T16:32:01.112Z,1.9
2022-11-05T16:33:01.109Z,1.6
2022-11-05T16:34:01.184Z,1.4
2022-11-05T16:35:01.154Z,1.2
2022-11-05T16:36:11.343Z,1.1
2022-11-05T16:37:01.116Z,0.9
2022-11-05T16:38:01.182Z,0.8
2022-11-05T16:39:01.117Z,0.7
2022-11-05T16:40:01.143Z,0.5
2022-11-05T16:42:01.319Z,0.4
2022-11-05T16:43:01.111Z,0.3
2022-11-05T16:45:01.250Z,0.2
2022-11-05T16:46:02.483Z,0.1
2022-11-05T23:19:01.140Z,0.1
2022-11-05T23:30:01.379Z,0.1
